MyWebLog Booking Liste

 

Nyhetsmelding

Kopirett © 2014 Værnes Flyklubb. Alle rettigheter reservert.
Joomla! er fri programvare utgitt under GNU/GPL License.
 

METAR

ENVA 231250Z 26007KT 210V280 9999 VCSH FEW040CB BKN061 16/12 Q1003 TEMPO SHRA BKN012 SCT020CB RMK WIND 670FT 19003KT

TAF ENVA 2312/2412 VRB07KT 9999 FEW020TCU SCT040 TEMPO 2312/2324 26012KT SHRA BKN012 SCT020CB